Time;durP1;ratioP1;P1;durP2;ratioP2;P2;SDS_P1;SDS_P2;PMS_P1;PMS_P2;Temp;Humidity;BMP_temperature;BMP_pressure;BME280_temperature;BME280_humidity;BME280_pressure;Samples;Min_cycle;Max_cycle;Signal;HPM_P1;HPM_P2
2022/09/29 00:01:31;;;;;;;;;;;;;;;11.67;65.28;99515.00;4940949;28;119311;-73
2022/09/29 00:03:57;;;;;;;;;;;;;;;11.65;65.27;99512.00;4948131;28;120084;-73
2022/09/29 00:06:23;;;;;;;;;;;;;;;11.65;65.55;99510.00;4947482;28;119934;-73
2022/09/29 00:08:48;;;;;;;;;;;;;;;11.65;65.39;99515.50;4947415;28;120302;-73
2022/09/29 00:11:20;;;;;;;;;;;;;;;11.66;65.61;99506.00;4943666;28;119172;-73
2022/09/29 00:13:46;;;;;;;;;;;;;;;11.67;65.63;99501.28;4951423;28;119984;-72
2022/09/29 00:16:12;;;;;;;;;;;;;;;11.68;65.86;99511.03;4946846;28;119888;-73
2022/09/29 00:18:38;;;;;;;;;;;;;;;11.68;66.04;99509.03;4949738;28;119987;-72
2022/09/29 00:21:11;;;;;;;;;;;;;;;11.71;65.76;99498.31;4945699;28;119434;-73
2022/09/29 00:23:37;;;;;;;;;;;;;;;11.72;65.94;99499.81;4951347;28;119343;-73
2022/09/29 00:26:03;;;;;;;;;;;;;;;11.75;65.93;99498.84;4950180;28;119885;-73
2022/09/29 00:28:29;;;;;;;;;;;;;;;11.75;65.80;99496.09;4949351;28;120082;-72
2022/09/29 00:30:56;;;;;;;;;;;;;;;11.76;65.60;99500.34;4950381;28;119584;-73
2022/09/29 00:33:22;;;;;;;;;;;;;;;11.74;65.63;99497.34;4954932;28;119157;-73
2022/09/29 00:36:18;;;;;;;;;;;;;;;11.73;65.47;99498.56;4949416;28;119530;-73
2022/09/29 00:38:54;;;;;;;;;;;;;;;11.72;65.52;99497.06;4942060;28;119703;-73
2022/09/29 00:41:23;;;;;;;;;;;;;;;11.72;65.47;99500.56;4950138;28;119518;-73
2022/09/29 00:44:03;;;;;;;;;;;;;;;11.74;65.65;99500.84;4949283;28;119263;-73
2022/09/29 00:46:29;;;;;;;;;;;;;;;11.77;66.02;99496.34;4948020;28;119758;-73
2022/09/29 00:48:56;;;;;;;;;;;;;;;11.80;65.98;99498.91;4950277;28;119936;-73
2022/09/29 00:51:23;;;;;;;;;;;;;;;11.80;65.72;99496.16;4949692;28;119697;-73
2022/09/29 00:53:48;;;;;;;;;;;;;;;11.80;65.74;99496.16;4949749;28;119208;-73
2022/09/29 00:56:15;;;;;;;;;;;;;;;11.80;65.85;99496.16;4952132;28;119787;-73
2022/09/29 00:58:53;;;;;;;;;;;;;;;11.80;65.99;99496.16;4950393;28;119342;-73
2022/09/29 01:01:19;;;;;;;;;;;;;;;11.82;65.81;99501.16;4948124;28;121872;-73
2022/09/29 01:03:46;;;;;;;;;;;;;;;11.84;65.99;99496.72;4982835;28;119463;-73
2022/09/29 01:06:14;;;;;;;;;;;;;;;11.87;66.11;99495.75;4926413;28;119908;-73
2022/09/29 01:08:56;;;;;;;;;;;;;;;11.91;66.31;99501.00;4947351;28;119604;-73
2022/09/29 01:11:23;;;;;;;;;;;;;;;11.91;66.28;99495.50;4947417;28;119292;-73
2022/09/29 01:13:48;;;;;;;;;;;;;;;11.89;65.88;99495.25;4947459;28;119450;-73
2022/09/29 01:16:14;;;;;;;;;;;;;;;11.88;65.73;99504.72;4949437;28;119885;-73
2022/09/29 01:18:40;;;;;;;;;;;;;;;11.88;65.83;99499.25;4955506;28;119554;-73
2022/09/29 01:21:06;;;;;;;;;;;;;;;11.89;65.87;99500.75;4947655;28;119763;-73
2022/09/29 01:23:34;;;;;;;;;;;;;;;11.90;66.06;99494.00;4949581;28;119494;-73
2022/09/29 01:26:00;;;;;;;;;;;;;;;11.92;66.30;99497.00;4949260;28;120116;-73
2022/09/29 01:28:31;;;;;;;;;;;;;;;11.97;66.19;99499.03;4949734;28;119608;-73
2022/09/29 01:31:16;;;;;;;;;;;;;;;11.98;66.40;99495.81;4948493;28;119409;-73
2022/09/29 01:33:48;;;;;;;;;;;;;;;11.98;65.91;99497.81;4950108;28;119282;-73
2022/09/29 01:36:32;;;;;;;;;;;;;;;11.94;65.70;99505.53;4949725;28;119250;-73
2022/09/29 01:39:01;;;;;;;;;;;;;;;11.89;65.30;99496.00;4949931;28;119796;-73
2022/09/29 01:41:26;;;;;;;;;;;;;;;11.88;65.49;99500.00;4953683;28;119738;-73
2022/09/29 01:43:52;;;;;;;;;;;;;;;11.87;65.72;99500.47;4950230;28;119594;-73
2022/09/29 01:46:27;;;;;;;;;;;;;;;11.88;65.57;99496.50;4948770;28;119680;-73
2022/09/29 01:49:12;;;;;;;;;;;;;;;11.88;65.87;99497.25;4946966;28;119877;-73
2022/09/29 01:51:40;;;;;;;;;;;;;;;11.92;66.37;99497.78;4949847;28;119380;-73
2022/09/29 01:54:12;;;;;;;;;;;;;;;11.97;66.29;99499.81;4948715;28;120211;-73
2022/09/29 01:57:03;;;;;;;;;;;;;;;12.03;66.67;99502.59;4946626;28;120123;-73
2022/09/29 01:59:29;;;;;;;;;;;;;;;12.08;66.48;99499.16;4981660;28;119814;-73
2022/09/29 02:01:58;;;;;;;;;;;;;;;12.12;66.84;99505.16;4948429;28;119699;-73
2022/09/29 02:04:32;;;;;;;;;;;;;;;12.16;66.96;99500.19;4953381;28;119749;-73
2022/09/29 02:07:02;;;;;;;;;;;;;;;12.21;66.91;99502.22;4948560;28;120482;-73
2022/09/29 02:09:32;;;;;;;;;;;;;;;12.25;67.03;99494.50;4946671;28;119920;-73
2022/09/29 02:12:00;;;;;;;;;;;;;;;12.28;66.78;99498.25;4947623;28;119679;-73
2022/09/29 02:14:28;;;;;;;;;;;;;;;12.32;66.78;99501.56;4947933;28;119632;-73
2022/09/29 02:16:58;;;;;;;;;;;;;;;12.33;66.55;99502.31;4947511;28;121849;-73
2022/09/29 02:19:25;;;;;;;;;;;;;;;12.35;66.67;99491.56;4951090;28;119814;-72
2022/09/29 02:21:53;;;;;;;;;;;;;;;12.37;66.88;99492.59;4949463;28;119728;-73
2022/09/29 02:24:19;;;;;;;;;;;;;;;12.39;66.53;99490.09;4947448;28;119909;-73
2022/09/29 02:26:47;;;;;;;;;;;;;;;12.41;66.53;99492.34;4950956;28;120639;-73
2022/09/29 02:29:14;;;;;;;;;;;;;;;12.40;66.83;99490.84;4946790;28;122509;-73
2022/09/29 02:31:40;;;;;;;;;;;;;;;12.41;66.85;99486.84;4946362;28;119799;-73
2022/09/29 02:34:07;;;;;;;;;;;;;;;12.43;66.65;99485.13;4947599;28;119759;-73
2022/09/29 02:36:39;;;;;;;;;;;;;;;12.44;66.68;99486.63;4947350;28;119688;-72
2022/09/29 02:39:12;;;;;;;;;;;;;;;12.46;67.02;99489.63;4950836;28;119588;-73
2022/09/29 02:41:49;;;;;;;;;;;;;;;12.49;66.81;99494.13;4947991;28;119601;-73
2022/09/29 02:44:15;;;;;;;;;;;;;;;12.51;66.75;99485.41;4948270;28;119453;-72
2022/09/29 02:46:40;;;;;;;;;;;;;;;12.53;67.04;99488.41;4950943;28;119205;-73
2022/09/29 02:49:32;;;;;;;;;;;;;;;12.56;67.06;99487.44;4926230;28;120546;-73
2022/09/29 02:52:03;;;;;;;;;;;;;;;12.59;66.72;99486.44;4944938;28;119980;-73
2022/09/29 02:54:41;;;;;;;;;;;;;;;12.61;67.18;99483.97;4938574;28;119472;-73
2022/09/29 02:57:16;;;;;;;;;;;;;;;12.64;67.20;99487.72;4941020;28;119978;-73
2022/09/29 02:59:49;;;;;;;;;;;;;;;12.66;67.07;99480.47;4943139;28;119782;-73
2022/09/29 03:02:15;;;;;;;;;;;;;;;12.68;67.10;99472.47;4942920;28;119801;-73
2022/09/29 03:04:41;;;;;;;;;;;;;;;12.71;66.74;99479.75;4939790;28;119791;-73
2022/09/29 03:07:06;;;;;;;;;;;;;;;12.73;66.91;99477.25;4951205;28;119512;-73
2022/09/29 03:09:32;;;;;;;;;;;;;;;12.75;66.90;99483.00;4950383;28;119839;-73
2022/09/29 03:11:58;;;;;;;;;;;;;;;12.76;66.90;99479.00;4946681;28;120273;-73
2022/09/29 03:14:23;;;;;;;;;;;;;;;12.79;67.25;99471.78;4941294;28;120006;-73
2022/09/29 03:16:49;;;;;;;;;;;;;;;12.80;66.63;99474.06;4944428;28;120659;-73
2022/09/29 03:19:14;;;;;;;;;;;;;;;12.83;67.01;99477.81;4978224;28;120197;-73
2022/09/29 03:21:40;;;;;;;;;;;;;;;12.85;67.09;99481.56;4943657;28;119329;-73
2022/09/29 03:24:05;;;;;;;;;;;;;;;12.87;67.12;99473.56;4945335;28;119923;-73
2022/09/29 03:26:32;;;;;;;;;;;;;;;12.89;67.00;99487.59;4942721;28;119540;-73
2022/09/29 03:28:57;;;;;;;;;;;;;;;12.89;66.81;99484.06;4979281;28;119852;-72
2022/09/29 03:31:23;;;;;;;;;;;;;;;12.86;66.60;99483.06;4951600;28;121178;-73
2022/09/29 03:33:48;;;;;;;;;;;;;;;12.83;66.33;99486.81;4948107;28;119360;-73
2022/09/29 03:36:14;;;;;;;;;;;;;;;12.82;66.56;99484.56;4947212;28;119713;-73
2022/09/29 03:38:40;;;;;;;;;;;;;;;12.82;66.67;99479.81;4948764;28;119771;-73
2022/09/29 03:41:08;;;;;;;;;;;;;;;12.84;66.74;99485.56;4946550;28;119829;-73
2022/09/29 03:43:33;;;;;;;;;;;;;;;12.86;66.93;99480.31;4946030;28;119277;-73
2022/09/29 03:45:59;;;;;;;;;;;;;;;12.90;66.73;99480.06;4953783;28;119793;-73
2022/09/29 03:48:45;;;;;;;;;;;;;;;12.91;66.81;99479.59;4951262;28;119382;-73
2022/09/29 03:51:10;;;;;;;;;;;;;;;12.94;67.05;99485.34;4946118;28;119949;-73
2022/09/29 03:53:36;;;;;;;;;;;;;;;12.97;67.40;99492.59;4951120;28;119471;-73
2022/09/29 03:56:02;;;;;;;;;;;;;;;12.98;67.21;99489.34;4947849;28;119889;-72
2022/09/29 03:58:28;;;;;;;;;;;;;;;13.00;67.05;99497.13;4947574;28;119844;-73
2022/09/29 04:00:54;;;;;;;;;;;;;;;13.01;67.30;99493.13;4945237;28;119948;-73
2022/09/29 04:03:20;;;;;;;;;;;;;;;13.04;67.17;99487.41;4949392;28;119505;-73
2022/09/29 04:05:46;;;;;;;;;;;;;;;13.06;67.38;99492.41;4949639;28;119544;-73
2022/09/29 04:08:12;;;;;;;;;;;;;;;13.09;67.28;99496.91;4958164;28;119707;-73
2022/09/29 04:10:38;;;;;;;;;;;;;;;13.09;67.38;99494.16;4950888;28;119760;-73
2022/09/29 04:13:04;;;;;;;;;;;;;;;13.10;67.29;99495.66;4948393;28;119631;-73
2022/09/29 04:15:30;;;;;;;;;;;;;;;13.12;67.22;99495.91;4957155;28;120006;-73
2022/09/29 04:17:58;;;;;;;;;;;;;;;13.13;67.38;99492.66;4950256;28;119876;-72
2022/09/29 04:20:24;;;;;;;;;;;;;;;13.14;67.53;99499.66;4949916;28;120099;-73
2022/09/29 04:22:50;;;;;;;;;;;;;;;13.09;67.05;99494.91;4948628;28;122709;-72
2022/09/29 04:25:16;;;;;;;;;;;;;;;13.07;67.04;99502.91;4949185;28;120265;-73
2022/09/29 04:27:41;;;;;;;;;;;;;;;13.07;67.15;99497.41;4949211;28;119765;-73
2022/09/29 04:30:07;;;;;;;;;;;;;;;13.07;67.35;99502.91;4949276;28;119607;-73
2022/09/29 04:32:33;;;;;;;;;;;;;;;13.08;67.61;99489.91;4947937;28;119714;-73
2022/09/29 04:34:58;;;;;;;;;;;;;;;13.09;67.73;99505.16;4948464;28;120113;-73
2022/09/29 04:37:24;;;;;;;;;;;;;;;13.11;67.79;99505.44;4952180;28;119420;-73
2022/09/29 04:39:52;;;;;;;;;;;;;;;13.12;67.44;99509.69;4949956;28;120503;-73
2022/09/29 04:42:17;;;;;;;;;;;;;;;13.13;67.57;99509.19;4962835;28;121900;-73
2022/09/29 04:44:43;;;;;;;;;;;;;;;13.13;67.97;99509.19;4950308;28;119889;-73
2022/09/29 04:47:08;;;;;;;;;;;;;;;13.15;67.99;99514.19;4950772;28;120364;-73
2022/09/29 04:49:34;;;;;;;;;;;;;;;13.17;67.99;99512.47;4949019;28;119396;-72
2022/09/29 04:52:00;;;;;;;;;;;;;;;13.19;67.82;99512.72;4951062;28;119691;-73
2022/09/29 04:54:29;;;;;;;;;;;;;;;13.21;67.74;99518.50;4949857;28;119329;-72
2022/09/29 04:56:54;;;;;;;;;;;;;;;13.23;67.78;99518.00;4947683;28;120693;-73
2022/09/29 04:59:20;;;;;;;;;;;;;;;13.24;68.52;99511.22;4943808;28;119881;-73
2022/09/29 05:01:47;;;;;;;;;;;;;;;13.26;68.00;99508.75;4947899;28;119938;-73
2022/09/29 05:04:13;;;;;;;;;;;;;;;13.30;68.46;99520.28;4946697;28;119424;-73
2022/09/29 05:06:38;;;;;;;;;;;;;;;13.34;68.12;99511.78;4950241;28;119695;-73
2022/09/29 05:09:04;;;;;;;;;;;;;;;13.36;68.56;99520.28;4950320;28;119934;-73
2022/09/29 05:11:30;;;;;;;;;;;;;;;13.38;68.71;99518.53;4950516;28;119354;-73
2022/09/29 05:13:56;;;;;;;;;;;;;;;13.42;68.38;99530.06;4959300;28;120006;-73
2022/09/29 05:16:21;;;;;;;;;;;;;;;13.43;68.23;99520.53;4948854;28;120830;-73
2022/09/29 05:18:47;;;;;;;;;;;;;;;13.46;68.62;99519.53;4956272;28;119797;-73
2022/09/29 05:21:12;;;;;;;;;;;;;;;13.48;68.72;99513.53;4948784;28;120137;-73
2022/09/29 05:23:38;;;;;;;;;;;;;;;13.51;68.82;99521.59;4948392;28;119725;-73
2022/09/29 05:26:05;;;;;;;;;;;;;;;13.54;68.55;99530.09;4948431;28;120400;-73
2022/09/29 05:28:31;;;;;;;;;;;;;;;13.54;68.65;99525.34;4946287;28;120386;-73
2022/09/29 05:31:03;;;;;;;;;;;;;;;13.54;68.40;99528.09;4949777;28;119554;-73
2022/09/29 05:33:29;;;;;;;;;;;;;;;13.54;68.74;99525.34;4943608;28;119725;-72
2022/09/29 05:36:10;;;;;;;;;;;;;;;13.55;68.46;99520.59;4948009;28;119928;-73
2022/09/29 05:38:36;;;;;;;;;;;;;;;13.46;68.92;99521.56;4964944;28;119414;-73
2022/09/29 05:41:05;;;;;;;;;;;;;;;13.57;68.61;99534.59;4953567;28;120336;-73
2022/09/29 05:43:30;;;;;;;;;;;;;;;13.57;68.77;99535.38;4965388;28;119653;-72
2022/09/29 05:46:03;;;;;;;;;;;;;;;13.58;68.89;99531.34;4949429;28;119790;-73
2022/09/29 05:48:29;;;;;;;;;;;;;;;13.60;69.06;99536.38;4949687;28;120185;-73
2022/09/29 05:50:59;;;;;;;;;;;;;;;13.63;69.30;99529.84;4949940;28;119674;-73
2022/09/29 05:53:25;;;;;;;;;;;;;;;13.64;69.16;99531.34;4946617;28;119353;-73
2022/09/29 05:55:51;;;;;;;;;;;;;;;13.66;68.77;99528.84;4950922;28;120183;-73
2022/09/29 05:58:19;;;;;;;;;;;;;;;13.68;68.66;99526.34;4947790;28;119967;-73
2022/09/29 06:00:46;;;;;;;;;;;;;;;13.71;68.86;99530.84;4948729;28;119784;-73
2022/09/29 06:03:14;;;;;;;;;;;;;;;13.72;69.03;99529.59;4951859;28;120082;-72
2022/09/29 06:05:40;;;;;;;;;;;;;;;13.74;69.13;99535.41;4948654;28;119903;-73
2022/09/29 06:08:05;;;;;;;;;;;;;;;13.75;68.85;99531.38;4949476;28;120197;-73
2022/09/29 06:10:32;;;;;;;;;;;;;;;13.76;69.33;99533.63;4949795;28;119965;-73
2022/09/29 06:12:57;;;;;;;;;;;;;;;13.78;69.30;99533.88;4949737;28;119377;-73
2022/09/29 06:15:23;;;;;;;;;;;;;;;13.78;68.79;99536.66;4947142;28;120003;-73
2022/09/29 06:17:56;;;;;;;;;;;;;;;13.79;68.83;99531.88;4943225;28;119419;-73
2022/09/29 06:20:22;;;;;;;;;;;;;;;13.80;69.12;99536.16;4943172;28;119928;-73
2022/09/29 06:22:48;;;;;;;;;;;;;;;13.81;69.40;99532.13;4952211;28;119313;-73
2022/09/29 06:25:14;;;;;;;;;;;;;;;13.83;69.31;99540.66;4951202;28;120245;-73
2022/09/29 06:27:39;;;;;;;;;;;;;;;13.83;69.72;99532.38;4948967;28;119178;-72
2022/09/29 06:30:05;;;;;;;;;;;;;;;13.84;69.25;99533.88;4949350;28;120054;-73
2022/09/29 06:32:33;;;;;;;;;;;;;;;13.87;69.76;99534.88;4950132;28;120430;-73
2022/09/29 06:37:45;;;;;;;;;;;;;;;13.90;69.57;99548.41;4945187;28;119754;-73
2022/09/29 06:40:11;;;;;;;;;;;;;;;13.92;69.55;99540.41;4943692;28;119843;-73
2022/09/29 06:42:43;;;;;;;;;;;;;;;13.93;69.33;99536.38;4945622;28;120362;-73
2022/09/29 06:45:10;;;;;;;;;;;;;;;13.94;69.36;99537.88;4978729;28;119649;-73
2022/09/29 06:47:36;;;;;;;;;;;;;;;13.97;69.29;99536.91;4948686;28;119096;-73
2022/09/29 06:50:01;;;;;;;;;;;;;;;14.00;69.45;99527.63;4945296;28;119967;-75
2022/09/29 06:52:28;;;;;;;;;;;;;;;14.02;69.43;99532.66;4947238;28;119603;-74
2022/09/29 06:54:53;;;;;;;;;;;;;;;14.05;69.18;99531.66;4947975;28;119686;-74
2022/09/29 06:57:19;;;;;;;;;;;;;;;14.07;69.92;99529.88;4944041;28;119935;-75
2022/09/29 06:59:44;;;;;;;;;;;;;;;14.08;69.91;99525.88;4949567;28;119770;-74
2022/09/29 07:02:10;;;;;;;;;;;;;;;14.09;69.31;99527.38;4925590;28;121163;-75
2022/09/29 07:04:36;;;;;;;;;;;;;;;14.11;69.49;99524.88;4949368;28;120032;-75
2022/09/29 07:07:14;;;;;;;;;;;;;;;14.14;69.82;99534.13;4948741;28;119805;-74
2022/09/29 07:09:41;;;;;;;;;;;;;;;14.15;69.45;99532.88;4949516;28;119656;-74
2022/09/29 07:12:06;;;;;;;;;;;;;;;14.18;70.08;99536.63;4944608;28;119520;-73
2022/09/29 07:14:32;;;;;;;;;;;;;;;14.18;69.46;99540.16;4977539;28;119878;-74
2022/09/29 07:16:59;;;;;;;;;;;;;;;14.19;69.72;99538.13;4946274;28;119580;-74
2022/09/29 07:19:24;;;;;;;;;;;;;;;14.22;70.10;99539.91;4941473;28;121061;-75
2022/09/29 07:21:50;;;;;;;;;;;;;;;14.24;69.60;99542.91;4945652;28;119847;-75
2022/09/29 07:24:16;;;;;;;;;;;;;;;14.27;69.88;99541.91;4961191;28;119661;-74
2022/09/29 07:26:42;;;;;;;;;;;;;;;14.30;69.99;99543.66;4928803;28;119871;-74
2022/09/29 07:29:39;;;;;;;;;;;;;;;14.32;69.73;99546.66;4946147;28;120041;-74
2022/09/29 07:32:33;;;;;;;;;;;;;;;14.35;69.78;99542.91;4946990;28;119682;-73
2022/09/29 07:34:59;;;;;;;;;;;;;;;14.35;69.68;99542.91;4943761;28;120019;-75
2022/09/29 07:37:25;;;;;;;;;;;;;;;14.36;69.85;99542.38;4946204;28;120006;-75
2022/09/29 07:39:52;;;;;;;;;;;;;;;14.38;69.88;99536.38;4945233;28;119552;-74
2022/09/29 07:42:18;;;;;;;;;;;;;;;14.39;70.06;99544.13;4928004;28;119556;-75
2022/09/29 07:44:54;;;;;;;;;;;;;;;14.40;69.97;99542.13;4928394;28;120058;-75
2022/09/29 07:47:19;;;;;;;;;;;;;;;14.44;70.02;99539.91;4940417;28;120179;-74
2022/09/29 07:50:20;;;;;;;;;;;;;;;14.47;70.09;99543.69;4946343;28;120444;-74
2022/09/29 07:52:48;;;;;;;;;;;;;;;14.49;70.20;99541.16;4946607;28;119441;-74
2022/09/29 07:55:14;;;;;;;;;;;;;;;14.51;70.02;99550.44;4941668;28;120075;-73
2022/09/29 07:57:40;;;;;;;;;;;;;;;14.56;69.79;99540.63;4947326;28;119573;-74
2022/09/29 08:00:06;;;;;;;;;;;;;;;14.58;69.76;99549.91;4919154;28;120237;-73
2022/09/29 08:02:37;;;;;;;;;;;;;;;14.61;69.83;99548.91;4981828;28;120599;-75
2022/09/29 08:05:02;;;;;;;;;;;;;;;14.62;70.25;99547.63;4951097;28;119709;-74
2022/09/29 08:07:28;;;;;;;;;;;;;;;14.64;70.08;99547.88;4953056;28;119853;-74
2022/09/29 08:09:53;;;;;;;;;;;;;;;14.66;69.73;99550.13;4951101;28;121367;-74
2022/09/29 08:12:19;;;;;;;;;;;;;;;14.63;69.50;99557.41;4947921;28;119544;-73
2022/09/29 08:14:45;;;;;;;;;;;;;;;14.62;69.77;99555.91;4961242;28;119530;-73
2022/09/29 08:17:10;;;;;;;;;;;;;;;14.61;69.79;99561.94;4953481;28;119883;-73
2022/09/29 08:19:36;;;;;;;;;;;;;;;14.61;69.59;99559.94;4948393;28;119452;-74
2022/09/29 08:22:07;;;;;;;;;;;;;;;14.61;70.19;99562.69;4950704;28;119847;-73
2022/09/29 08:24:35;;;;;;;;;;;;;;;14.62;69.92;99561.44;4947154;28;120501;-73
2022/09/29 08:27:01;;;;;;;;;;;;;;;14.62;70.42;99555.91;4983305;28;120463;-73
2022/09/29 08:29:27;;;;;;;;;;;;;;;14.63;70.36;99562.94;4964612;28;122428;-74
2022/09/29 08:31:55;;;;;;;;;;;;;;;14.64;70.09;99558.16;4950685;28;120165;-74
2022/09/29 08:34:52;;;;;;;;;;;;;;;14.65;70.17;99559.66;4950372;28;119477;-74
2022/09/29 08:37:17;;;;;;;;;;;;;;;14.66;70.58;99563.94;4952770;28;119909;-73
2022/09/29 08:39:43;;;;;;;;;;;;;;;14.68;70.00;99569.72;4948434;28;120579;-73
2022/09/29 08:42:14;;;;;;;;;;;;;;;14.66;70.20;99566.69;4948264;28;120923;-74
2022/09/29 08:44:50;;;;;;;;;;;;;;;14.64;70.25;99569.97;4954424;28;120030;-72
2022/09/29 08:47:19;;;;;;;;;;;;;;;14.62;70.16;99569.72;4952391;28;119556;-75
2022/09/29 08:50:19;;;;;;;;;;;;;;;14.61;70.37;99570.22;4952913;28;119928;-74
2022/09/29 08:52:48;;;;;;;;;;;;;;;14.61;70.55;99570.22;4982163;28;119894;-74
2022/09/29 08:55:17;;;;;;;;;;;;;;;14.61;70.35;99572.97;4949585;28;120490;-74
2022/09/29 08:57:44;;;;;;;;;;;;;;;14.61;70.55;99576.50;4962236;28;120255;-72
2022/09/29 09:00:11;;;;;;;;;;;;;;;14.63;70.66;99578.75;4955395;28;119851;-73
2022/09/29 09:03:03;;;;;;;;;;;;;;;14.65;70.53;99579.00;4950156;28;120229;-73
2022/09/29 09:05:39;;;;;;;;;;;;;;;14.65;70.45;99579.75;4951497;28;119928;-74
2022/09/29 09:08:14;;;;;;;;;;;;;;;14.67;70.57;99574.50;4953565;28;119892;-74
2022/09/29 09:10:46;;;;;;;;;;;;;;;14.68;70.64;99581.50;4950421;28;119956;-73
2022/09/29 09:13:11;;;;;;;;;;;;;;;14.69;70.70;99574.00;4950490;28;120065;-73
2022/09/29 09:15:47;;;;;;;;;;;;;;;14.71;70.64;99588.78;4952306;28;120335;-74
2022/09/29 09:18:28;;;;;;;;;;;;;;;14.72;70.69;99584.75;4949211;28;119576;-73
2022/09/29 09:21:15;;;;;;;;;;;;;;;14.73;70.56;99582.75;4973062;28;119980;-74
2022/09/29 09:23:48;;;;;;;;;;;;;;;14.74;70.75;99587.03;4954351;28;119578;-74
2022/09/29 09:26:14;;;;;;;;;;;;;;;14.76;70.59;99584.50;4952900;28;119546;-73
2022/09/29 09:28:42;;;;;;;;;;;;;;;14.78;70.87;99584.00;4954539;28;121187;-74
2022/09/29 09:31:07;;;;;;;;;;;;;;;14.79;70.69;99591.03;4955439;28;119571;-74
2022/09/29 09:33:38;;;;;;;;;;;;;;;14.80;70.41;99593.28;4952395;28;120576;-74
2022/09/29 09:36:03;;;;;;;;;;;;;;;14.83;70.58;99591.50;4950291;28;119970;-74
2022/09/29 09:38:55;;;;;;;;;;;;;;;14.87;70.75;99586.47;4949769;28;119927;-74
2022/09/29 09:41:22;;;;;;;;;;;;;;;14.92;70.82;99592.00;4958118;28;119737;-75
2022/09/29 09:43:55;;;;;;;;;;;;;;;14.97;70.82;99596.00;4931760;28;119700;-74
2022/09/29 09:46:28;;;;;;;;;;;;;;;15.02;70.63;99603.50;4951098;28;119483;-73
2022/09/29 09:49:13;;;;;;;;;;;;;;;15.04;71.05;99601.00;4950410;28;120003;-74
2022/09/29 09:51:44;;;;;;;;;;;;;;;15.07;71.09;99599.97;4950501;28;119508;-74
2022/09/29 09:54:13;;;;;;;;;;;;;;;15.10;71.10;99609.25;4946521;28;119995;-74
2022/09/29 09:56:38;;;;;;;;;;;;;;;15.13;70.53;99605.47;4948173;28;119595;-74
2022/09/29 09:59:18;;;;;;;;;;;;;;;15.14;70.65;99605.00;4950022;28;119919;-74
2022/09/29 10:01:44;;;;;;;;;;;;;;;15.16;70.59;99607.25;4950484;28;119700;-74
2022/09/29 10:04:13;;;;;;;;;;;;;;;15.19;70.82;99608.97;4949376;28;120182;-74
2022/09/29 10:06:39;;;;;;;;;;;;;;;15.24;70.80;99617.25;4953926;28;119880;-75
2022/09/29 10:09:04;;;;;;;;;;;;;;;15.27;70.65;99619.00;4951235;28;119933;-74
2022/09/29 10:11:30;;;;;;;;;;;;;;;15.30;71.14;99617.97;4950264;28;121905;-73
2022/09/29 10:14:10;;;;;;;;;;;;;;;15.33;70.82;99616.94;4952969;28;119852;-73
2022/09/29 10:17:04;;;;;;;;;;;;;;;15.41;71.11;99619.19;4985585;28;120014;-75
2022/09/29 10:19:48;;;;;;;;;;;;;;;15.49;71.05;99614.63;4947718;28;120005;-74
2022/09/29 10:22:14;;;;;;;;;;;;;;;15.56;70.78;99623.13;4949863;28;119612;-73
2022/09/29 10:24:39;;;;;;;;;;;;;;;15.62;70.50;99621.13;4950460;28;120108;-74
2022/09/29 10:27:05;;;;;;;;;;;;;;;15.68;70.76;99626.63;4950027;28;120081;-74
2022/09/29 10:29:40;;;;;;;;;;;;;;;15.64;70.30;99617.84;4949873;28;119920;-74
2022/09/29 10:32:05;;;;;;;;;;;;;;;15.72;70.30;99629.88;4955200;28;119963;-73
2022/09/29 10:34:39;;;;;;;;;;;;;;;15.79;70.14;99634.09;4954493;28;119977;-75
2022/09/29 10:37:23;;;;;;;;;;;;;;;15.83;70.15;99627.03;4946491;28;119715;-74
2022/09/29 10:39:49;;;;;;;;;;;;;;;15.87;69.97;99635.81;4947870;28;121864;-75
2022/09/29 10:42:16;;;;;;;;;;;;;;;15.94;70.16;99632.50;4953188;28;119898;-74
2022/09/29 10:44:48;;;;;;;;;;;;;;;16.01;70.16;99633.22;4953085;28;120010;-75
2022/09/29 10:47:14;;;;;;;;;;;;;;;16.06;69.79;99640.72;4954596;28;120017;-75
2022/09/29 10:50:10;;;;;;;;;;;;;;;16.03;69.06;99636.22;4926895;28;120590;-75
2022/09/29 10:52:36;;;;;;;;;;;;;;;16.06;69.14;99640.72;4951101;28;120108;-74
2022/09/29 10:55:05;;;;;;;;;;;;;;;16.10;69.11;99641.22;4948728;28;119656;-75
2022/09/29 10:57:34;;;;;;;;;;;;;;;16.12;68.84;99641.44;4934415;28;120213;-75
2022/09/29 11:00:00;;;;;;;;;;;;;;;16.15;68.98;99651.47;4935084;28;120181;-74
2022/09/29 11:02:34;;;;;;;;;;;;;;;16.12;68.34;99649.75;4952117;28;120098;-75
2022/09/29 11:05:03;;;;;;;;;;;;;;;16.06;68.10;99651.78;4952230;28;119658;-74
2022/09/29 11:07:30;;;;;;;;;;;;;;;16.00;68.02;99648.31;4950642;28;120508;-75
2022/09/29 11:10:02;;;;;;;;;;;;;;;15.99;68.49;99653.09;4960312;28;120070;-75
2022/09/29 11:12:33;;;;;;;;;;;;;;;16.04;68.68;99651.53;4951864;28;120009;-74
2022/09/29 11:15:20;;;;;;;;;;;;;;;16.06;68.23;99662.84;4950562;28;120136;-75
2022/09/29 11:17:48;;;;;;;;;;;;;;;16.06;68.08;99652.53;4960284;28;120053;-73
2022/09/29 11:20:14;;;;;;;;;;;;;;;16.06;67.87;99654.53;4949525;28;121547;-75
2022/09/29 11:22:58;;;;;;;;;;;;;;;16.07;68.13;99656.78;4958150;28;119569;-75
2022/09/29 11:25:47;;;;;;;;;;;;;;;16.06;67.95;99660.06;4951774;28;120567;-75
2022/09/29 11:28:24;;;;;;;;;;;;;;;16.08;68.45;99669.38;4947635;28;120973;-74
2022/09/29 11:31:09;;;;;;;;;;;;;;;16.14;68.21;99670.09;4950736;28;119508;-74
2022/09/29 11:33:34;;;;;;;;;;;;;;;16.25;68.76;99669.25;4953113;28;120169;-75
2022/09/29 11:36:06;;;;;;;;;;;;;;;16.32;68.07;99674.22;4956697;28;120520;-75
2022/09/29 11:39:01;;;;;;;;;;;;;;;16.37;67.74;99670.69;4948049;28;119681;-75
2022/09/29 11:41:30;;;;;;;;;;;;;;;16.42;67.40;99669.91;4944729;28;120482;-75
2022/09/29 11:44:08;;;;;;;;;;;;;;;16.51;67.71;99677.13;4935488;28;120672;-75
2022/09/29 11:46:44;;;;;;;;;;;;;;;16.54;67.30;99679.59;4948379;28;119824;-73
2022/09/29 11:49:10;;;;;;;;;;;;;;;16.57;67.47;99678.59;4947095;28;120881;-75
2022/09/29 11:52:14;;;;;;;;;;;;;;;16.54;67.31;99676.84;4893336;28;120065;-75
2022/09/29 11:54:58;;;;;;;;;;;;;;;16.52;67.11;99682.13;4914575;28;120466;-74
2022/09/29 11:57:34;;;;;;;;;;;;;;;16.53;67.06;99680.13;4949293;28;119971;-74
2022/09/29 12:00:00;;;;;;;;;;;;;;;16.54;66.95;99687.91;4985843;28;120042;-75
2022/09/29 12:02:35;;;;;;;;;;;;;;;16.58;66.92;99690.41;4952032;28;120114;-75
2022/09/29 12:05:22;;;;;;;;;;;;;;;16.61;66.80;99691.41;4967727;28;119594;-75
2022/09/29 12:08:39;;;;;;;;;;;;;;;16.64;66.73;99687.59;4951175;28;119696;-73
2022/09/29 12:11:23;;;;;;;;;;;;;;;16.69;67.03;99692.34;4948886;28;120455;-75
2022/09/29 12:13:59;;;;;;;;;;;;;;;16.70;66.56;99688.31;4930417;28;120026;-75
2022/09/29 12:16:31;;;;;;;;;;;;;;;16.68;66.33;99688.09;4950204;28;119480;-75
2022/09/29 12:19:03;;;;;;;;;;;;;;;16.62;66.34;99687.38;4951140;28;119925;-75
2022/09/29 12:21:36;;;;;;;;;;;;;;;16.54;66.23;99698.97;4948735;28;120153;-74
2022/09/29 12:24:05;;;;;;;;;;;;;;;16.44;65.86;99703.34;4956471;28;120073;-73
2022/09/29 12:26:30;;;;;;;;;;;;;;;16.34;65.92;99704.94;4935563;28;120484;-74
2022/09/29 12:29:03;;;;;;;;;;;;;;;16.27;65.89;99700.69;4952660;28;119605;-73
2022/09/29 12:31:34;;;;;;;;;;;;;;;16.22;66.02;99697.97;4949822;28;120084;-73
2022/09/29 12:34:01;;;;;;;;;;;;;;;16.18;66.08;99698.22;4955375;28;120305;-74
2022/09/29 12:36:42;;;;;;;;;;;;;;;16.16;66.39;99706.28;4938853;28;121918;-74
2022/09/29 12:39:11;;;;;;;;;;;;;;;16.19;66.83;99698.97;4981520;28;120016;-74
2022/09/29 12:41:41;;;;;;;;;;;;;;;16.18;66.55;99706.53;4950641;28;119703;-74
2022/09/29 12:44:21;;;;;;;;;;;;;;;16.21;66.64;99707.53;4952632;28;120501;-74
2022/09/29 12:46:59;;;;;;;;;;;;;;;16.24;66.81;99712.03;4954169;28;120027;-74
2022/09/29 12:50:08;;;;;;;;;;;;;;;16.25;67.04;99711.50;4927331;28;119775;-73
2022/09/29 12:52:45;;;;;;;;;;;;;;;16.25;66.59;99702.47;4932049;28;119925;-75
2022/09/29 12:55:30;;;;;;;;;;;;;;;16.26;66.47;99709.50;4951413;28;120164;-75